Time;durP1;ratioP1;P1;durP2;ratioP2;P2;SDS_P1;SDS_P2;PMS_P1;PMS_P2;Temp;Humidity;BMP_temperature;BMP_pressure;BME280_temperature;BME280_humidity;BME280_pressure;Samples;Min_cycle;Max_cycle;Signal;HPM_P1;HPM_P2
2022/05/07 20:25:16;;;;;;;1.80;0.78;;;;;;;8.33;66.41;101926.59;2043418;69;27839;-65
2022/05/07 20:27:48;;;;;;;2.52;1.17;;;;;;;8.31;66.57;101928.37;2012973;70;21101;-64
2022/05/07 20:30:16;;;;;;;3.25;1.65;;;;;;;8.32;66.74;101920.94;2002366;70;21127;-64
2022/05/07 20:32:46;;;;;;;2.52;1.57;;;;;;;8.36;66.82;101921.32;2007153;70;21106;-61
2022/05/07 20:35:14;;;;;;;2.02;1.70;;;;;;;8.39;66.90;101921.72;2012309;70;21016;-63
2022/05/07 20:37:43;;;;;;;1.92;1.35;;;;;;;8.42;66.97;101917.79;2004223;70;21434;-64
2022/05/07 20:40:12;;;;;;;1.55;1.30;;;;;;;8.43;67.00;101916.47;2009483;70;21111;-64
2022/05/07 20:42:40;;;;;;;2.25;1.15;;;;;;;8.44;67.10;101923.89;1997809;70;21010;-64
2022/05/07 20:47:57;;;;;;;2.12;1.50;;;;;;;8.43;67.20;101915.16;2014511;70;21056;-63
2022/05/07 20:50:25;;;;;;;1.35;0.93;;;;;;;8.43;67.25;101916.92;2008704;70;21572;-63
2022/05/07 20:53:00;;;;;;;2.22;1.30;;;;;;;8.41;67.28;101916.90;2004223;70;21030;-62
2022/05/07 20:55:24;;;;;;;2.10;1.25;;;;;;;8.41;67.31;101919.52;2002809;70;21019;-63
2022/05/07 20:57:56;;;;;;;1.90;1.20;;;;;;;8.42;67.40;101926.53;2000905;70;21484;-62
2022/05/07 21:00:25;;;;;;;7.62;1.17;;;;;;;8.43;67.53;101926.11;2012187;70;21490;-66
2022/05/07 21:02:54;;;;;;;4.12;1.32;;;;;;;8.43;67.56;101923.03;2017720;70;21125;-63
2022/05/07 21:05:24;;;;;;;7.53;1.67;;;;;;;8.43;67.62;101924.34;2010005;71;21055;-64
2022/05/07 21:07:52;;;;;;;2.58;1.37;;;;;;;8.43;67.75;101916.47;2010035;71;21113;-63
2022/05/07 21:10:21;;;;;;;1.32;0.98;;;;;;;8.44;67.80;101913.39;2016199;70;21149;-64
2022/05/07 21:12:50;;;;;;;2.90;1.70;;;;;;;8.45;67.82;101918.63;2010000;70;21032;-63
2022/05/07 21:15:18;;;;;;;4.20;1.72;;;;;;;8.46;67.82;101917.72;2008792;70;21477;-63
2022/05/07 21:17:47;;;;;;;2.47;1.20;;;;;;;8.46;67.83;101913.78;2003850;70;21114;-63
2022/05/07 21:20:37;;;;;;;3.60;2.47;;;;;;;8.46;67.85;101917.72;2007913;70;21163;-62
2022/05/07 21:23:06;;;;;;;6.45;1.77;;;;;;;8.46;67.87;101912.47;1954556;72;21004;-63
2022/05/07 21:28:21;;;;;;;3.67;1.65;;;;;;;8.43;68.00;101924.34;1955905;73;21592;-68
2022/05/07 21:30:50;;;;;;;1.67;1.45;;;;;;;8.41;68.04;101920.84;1955753;73;21127;-64
2022/05/07 21:33:19;;;;;;;2.62;1.90;;;;;;;8.40;68.11;101923.02;1955379;73;21113;-68
2022/05/07 21:35:48;;;;;;;3.37;1.60;;;;;;;8.36;68.17;101918.70;1955379;73;21024;-66
2022/05/07 21:38:17;;;;;;;1.40;1.07;;;;;;;8.33;68.28;101918.72;1955187;73;21564;-66
2022/05/07 21:40:45;;;;;;;2.87;1.72;;;;;;;8.30;68.36;101921.40;1954650;73;21088;-67
2022/05/07 21:43:14;;;;;;;1.62;1.45;;;;;;;8.26;68.40;101919.25;1954854;72;21059;-67
2022/05/07 21:45:43;;;;;;;2.22;1.25;;;;;;;8.24;68.55;101921.44;1955140;72;21087;-67
2022/05/07 21:48:12;;;;;;;1.72;1.35;;;;;;;8.20;68.61;101917.13;1955631;72;21032;-67
2022/05/07 21:51:11;;;;;;;2.60;1.20;;;;;;;8.17;68.65;101919.34;1942453;73;21110;-73
2022/05/07 21:53:14;;;;;;;11.30;1.52;;;;;;;8.14;68.68;101915.88;1933583;73;21116;-64
2022/05/07 21:55:42;;;;;;;2.60;1.87;;;;;;;8.09;68.74;101916.77;1933016;72;21062;-63
2022/05/07 21:58:12;;;;;;;2.52;1.45;;;;;;;8.06;68.79;101915.52;1953367;73;21075;-63
2022/05/07 22:00:56;;;;;;;2.95;1.45;;;;;;;8.04;68.88;101918.59;1953502;73;21038;-66
2022/05/07 22:03:31;;;;;;;;;;;;;;;8.02;68.92;101916.44;1956817;73;21173;-67
2022/05/07 22:05:58;;;;;;;1.32;1.10;;;;;;;8.02;68.90;101916.85;1954262;71;20411;-66
2022/05/07 22:08:26;;;;;;;2.02;1.00;;;;;;;8.02;68.86;101919.48;1953228;73;21027;-66
2022/05/07 22:10:56;;;;;;;1.90;0.98;;;;;;;8.00;68.87;101911.61;1952759;73;21517;-66
2022/05/07 22:13:24;;;;;;;2.02;1.15;;;;;;;8.01;68.90;101913.82;1951317;73;21051;-64
2022/05/07 22:15:53;;;;;;;1.00;0.85;;;;;;;8.00;68.96;101912.92;1953589;71;21499;-66
2022/05/07 22:18:22;;;;;;;3.12;1.40;;;;;;;8.01;69.03;101910.74;1955339;73;21059;-66
2022/05/07 22:20:50;;;;;;;1.77;0.90;;;;;;;8.00;69.02;101912.92;1955116;73;21092;-64
2022/05/07 22:23:20;;;;;;;1.20;0.98;;;;;;;8.00;69.05;101907.68;1955173;73;21663;-66
2022/05/07 22:25:49;;;;;;;6.40;1.77;;;;;;;7.98;69.05;101906.83;1952387;72;21040;-67
2022/05/07 22:28:18;;;;;;;5.30;1.67;;;;;;;7.96;69.04;101902.50;1963544;72;21486;-65
2022/05/07 22:30:46;;;;;;;8.88;2.15;;;;;;;7.94;69.07;101912.99;1954668;72;21028;-68
2022/05/07 22:33:15;;;;;;;2.90;1.90;;;;;;;7.92;69.10;101909.07;1955043;72;21052;-65
2022/05/07 22:35:44;;;;;;;3.35;1.07;;;;;;;7.90;69.13;101910.84;1954737;73;21153;-68
2022/05/07 22:38:13;;;;;;;4.62;1.67;;;;;;;7.88;69.17;101912.61;1955161;72;21075;-68
2022/05/07 22:40:41;;;;;;;5.70;1.90;;;;;;;7.86;69.17;101914.83;1940907;72;21046;-66
2022/05/07 22:43:10;;;;;;;2.85;1.35;;;;;;;7.82;69.19;101915.72;1918395;73;21148;-65
2022/05/07 22:45:38;;;;;;;1.70;1.00;;;;;;;7.77;69.22;101915.77;1916406;73;21077;-69
2022/05/07 22:48:07;;;;;;;2.75;1.32;;;;;;;7.74;69.28;101916.65;1943647;73;21058;-67
2022/05/07 22:50:36;;;;;;;2.27;1.35;;;;;;;7.71;69.33;101917.15;1952394;73;21078;-65
2022/05/07 22:53:05;;;;;;;1.42;1.32;;;;;;;7.66;69.38;101909.30;1951674;73;21212;-67
2022/05/07 22:55:33;;;;;;;2.62;1.45;;;;;;;7.65;69.44;101907.55;1952819;73;21140;-68
2022/05/07 22:58:02;;;;;;;1.52;1.07;;;;;;;7.62;69.54;101902.36;1935028;72;21040;-65
2022/05/07 23:00:32;;;;;;;1.45;1.15;;;;;;;7.63;69.64;101898.84;1921129;73;21312;-68
2022/05/07 23:03:01;;;;;;;1.07;0.98;;;;;;;7.65;69.65;101897.06;1950306;73;21555;-68
2022/05/07 23:05:29;;;;;;;2.22;1.07;;;;;;;7.68;69.66;101898.36;1951200;72;21074;-67
2022/05/07 23:07:58;;;;;;;1.10;0.98;;;;;;;7.72;69.67;101897.45;1948875;72;21012;-65
2022/05/07 23:10:27;;;;;;;2.60;1.00;;;;;;;7.77;69.73;101888.70;1953148;73;21048;-68
2022/05/07 23:12:56;;;;;;;1.87;1.25;;;;;;;7.81;69.73;101887.78;1954989;73;21067;-65
2022/05/07 23:15:26;;;;;;;1.55;0.90;;;;;;;7.87;69.77;101883.77;1940173;72;21554;-67
2022/05/07 23:17:56;;;;;;;0.80;0.80;;;;;;;7.90;69.69;101891.63;1921021;73;21112;-65
2022/05/07 23:20:25;;;;;;;2.75;1.00;;;;;;;7.92;69.63;101890.71;1921044;72;21080;-64
2022/05/07 23:22:53;;;;;;;0.90;0.70;;;;;;;7.95;69.61;101893.77;1920772;73;21142;-68
2022/05/07 23:25:22;;;;;;;1.22;1.00;;;;;;;7.96;69.57;101890.24;1930504;72;21011;-65
2022/05/07 23:27:51;;;;;;;1.75;1.55;;;;;;;7.99;69.54;101891.98;1937632;73;21114;-65
2022/05/07 23:30:21;;;;;;;1.82;0.95;;;;;;;8.01;69.52;101889.76;1937523;72;21561;-66
2022/05/07 23:32:49;;;;;;;2.80;0.98;;;;;;;8.03;69.47;101881.43;1934683;73;21069;-69
2022/05/07 23:35:19;;;;;;;2.33;1.70;;;;;;;8.03;69.48;101878.80;1934633;73;21119;-66
2022/05/07 23:37:47;;;;;;;1.55;1.05;;;;;;;8.04;69.45;101883.19;1951957;73;21188;-66
2022/05/07 23:40:16;;;;;;;3.90;1.52;;;;;;;8.04;69.45;101884.50;1938301;73;21020;-66
2022/05/07 23:42:44;;;;;;;1.55;0.98;;;;;;;8.04;69.43;101877.94;1944133;72;21547;-66
2022/05/07 23:45:13;;;;;;;1.62;1.52;;;;;;;8.02;69.42;101884.95;1950291;71;21068;-67
2022/05/07 23:47:42;;;;;;;1.92;1.50;;;;;;;8.01;69.45;101889.76;1945653;73;21074;-65
2022/05/07 23:50:11;;;;;;;1.80;1.10;;;;;;;7.98;69.48;101893.72;1954461;73;21106;-66
2022/05/07 23:52:40;;;;;;;5.30;1.02;;;;;;;7.97;69.52;101890.69;1954680;73;21557;-65
2022/05/07 23:55:09;;;;;;;3.77;1.42;;;;;;;7.96;69.62;101891.55;1954171;73;21068;-65
2022/05/07 23:57:38;;;;;;;1.12;0.98;;;;;;;7.95;69.63;101887.63;1949947;73;20998;-64
